createdAt,value
2023-01-07T00:01:28.227Z,0.00
2023-01-07T00:03:56.533Z,0.22
2023-01-07T00:06:27.337Z,0.00
2023-01-07T00:08:55.517Z,0.00
2023-01-07T00:11:24.951Z,0.00
2023-01-07T00:13:53.264Z,0.00
2023-01-07T00:16:21.660Z,0.00
2023-01-07T00:18:48.877Z,0.00
2023-01-07T00:21:17.077Z,0.00
2023-01-07T00:23:44.774Z,0.20
2023-01-07T00:26:17.327Z,0.00
2023-01-07T00:28:45.559Z,0.10
2023-01-07T00:31:18.190Z,0.00
2023-01-07T00:34:07.400Z,0.00
2023-01-07T00:36:37.458Z,0.00
2023-01-07T00:39:15.069Z,0.00
2023-01-07T00:42:02.043Z,0.00
2023-01-07T00:44:29.588Z,0.00
2023-01-07T00:46:56.348Z,0.00
2023-01-07T00:49:24.564Z,0.00
2023-01-07T00:51:52.078Z,0.00
2023-01-07T00:54:20.292Z,0.00
2023-01-07T00:56:47.021Z,0.00
2023-01-07T00:59:13.952Z,0.00
2023-01-07T01:01:42.656Z,0.00
2023-01-07T01:04:09.549Z,0.00
2023-01-07T01:06:36.453Z,0.00
2023-01-07T01:09:03.220Z,0.00
2023-01-07T01:11:29.923Z,0.00
2023-01-07T01:13:56.669Z,0.00
2023-01-07T01:16:23.427Z,0.00
2023-01-07T01:18:50.414Z,0.00
2023-01-07T01:21:17.348Z,0.00
2023-01-07T01:23:44.246Z,0.10
2023-01-07T01:26:14.085Z,0.00
2023-01-07T01:28:41.149Z,0.00
2023-01-07T01:31:09.355Z,0.00
2023-01-07T01:33:48.316Z,0.47
2023-01-07T01:36:15.146Z,0.00
2023-01-07T01:38:43.006Z,0.00
2023-01-07T01:41:10.139Z,0.00
2023-01-07T01:43:42.309Z,0.00
2023-01-07T01:46:13.635Z,0.00
2023-01-07T01:48:46.260Z,0.00
2023-01-07T01:51:13.721Z,0.00
2023-01-07T01:53:40.529Z,0.00
2023-01-07T01:56:36.006Z,0.00
2023-01-07T01:59:07.022Z,0.00
2023-01-07T02:01:36.874Z,0.00
2023-01-07T02:04:12.266Z,0.00
2023-01-07T02:06:44.252Z,0.00
2023-01-07T02:09:12.743Z,0.00
2023-01-07T02:11:44.181Z,0.00
2023-01-07T02:14:24.927Z,0.00
2023-01-07T02:16:57.891Z,0.00
2023-01-07T02:19:44.879Z,0.00
2023-01-07T02:22:41.404Z,0.00
2023-01-07T02:25:43.220Z,0.00
2023-01-07T02:28:25.166Z,0.00
2023-01-07T02:31:29.112Z,0.00
2023-01-07T02:34:13.427Z,0.00
2023-01-07T02:36:43.105Z,0.00
2023-01-07T02:39:23.375Z,0.00
2023-01-07T02:41:58.360Z,0.00
2023-01-07T02:44:54.161Z,0.00
2023-01-07T02:47:38.927Z,0.00
2023-01-07T02:50:07.499Z,0.00
2023-01-07T02:52:36.321Z,0.00
2023-01-07T02:55:07.508Z,0.00
2023-01-07T02:57:52.927Z,0.28
2023-01-07T03:00:46.118Z,0.00
2023-01-07T03:03:22.338Z,0.00
2023-01-07T03:06:02.037Z,0.00
2023-01-07T03:08:58.799Z,0.00
2023-01-07T03:11:31.044Z,0.00
2023-01-07T03:14:10.655Z,0.00
2023-01-07T03:16:40.490Z,0.00
2023-01-07T03:19:35.757Z,0.05
2023-01-07T03:22:14.008Z,0.00
2023-01-07T03:24:43.373Z,0.10
2023-01-07T03:27:10.165Z,0.00
2023-01-07T03:29:37.022Z,0.00
2023-01-07T03:32:11.465Z,0.00
2023-01-07T03:34:39.033Z,0.00
2023-01-07T03:37:14.920Z,0.00
2023-01-07T03:39:44.425Z,0.00
2023-01-07T03:42:31.093Z,0.00
2023-01-07T03:44:59.345Z,0.00
2023-01-07T03:47:29.308Z,0.00
2023-01-07T03:49:56.126Z,0.00
2023-01-07T03:52:23.260Z,0.00
2023-01-07T03:54:50.362Z,0.00
2023-01-07T03:57:17.609Z,0.00
2023-01-07T03:59:44.473Z,0.00
2023-01-07T04:02:11.437Z,0.00
2023-01-07T04:04:38.628Z,0.00
2023-01-07T04:07:05.908Z,0.00
2023-01-07T04:09:32.685Z,0.00
2023-01-07T04:11:59.410Z,0.00
2023-01-07T04:14:26.403Z,0.00
2023-01-07T04:16:53.219Z,0.00
2023-01-07T04:19:20.103Z,0.10
2023-01-07T04:21:46.847Z,0.00
2023-01-07T04:24:14.230Z,0.00
2023-01-07T04:26:42.193Z,0.10
2023-01-07T04:29:09.020Z,0.00
2023-01-07T04:31:35.726Z,0.00
2023-01-07T04:34:02.516Z,0.00
2023-01-07T04:36:29.389Z,0.00
2023-01-07T04:38:56.595Z,0.00
2023-01-07T04:41:23.422Z,0.00
2023-01-07T04:43:50.629Z,0.00
2023-01-07T04:46:17.425Z,0.00
2023-01-07T04:48:44.368Z,0.00
2023-01-07T04:51:11.349Z,0.00
2023-01-07T04:53:38.877Z,0.00
2023-01-07T04:56:06.448Z,0.00
2023-01-07T04:58:33.912Z,0.00
2023-01-07T05:01:03.775Z,0.00
2023-01-07T05:03:34.639Z,0.00
2023-01-07T05:06:01.709Z,0.00
2023-01-07T05:08:29.139Z,0.00
2023-01-07T05:10:56.550Z,0.00
2023-01-07T05:13:31.945Z,0.00
2023-01-07T05:16:00.543Z,0.00
2023-01-07T05:18:27.349Z,0.00
2023-01-07T05:20:54.433Z,0.00
2023-01-07T05:23:21.301Z,0.00
2023-01-07T05:25:49.628Z,0.47
2023-01-07T05:28:17.602Z,0.00
2023-01-07T05:30:47.179Z,0.00
2023-01-07T05:33:14.108Z,0.00
2023-01-07T05:35:41.671Z,0.00
2023-01-07T05:38:08.476Z,0.00
2023-01-07T05:40:35.225Z,0.00
2023-01-07T05:43:02.295Z,0.00
2023-01-07T05:45:29.338Z,0.00
2023-01-07T05:47:56.175Z,0.00
2023-01-07T05:50:22.845Z,0.00
2023-01-07T05:52:51.275Z,0.00
2023-01-07T05:55:18.233Z,0.00
2023-01-07T05:57:45.000Z,0.00
2023-01-07T06:00:12.334Z,0.00
2023-01-07T06:02:39.366Z,0.00
2023-01-07T06:05:06.526Z,0.00
2023-01-07T06:07:33.331Z,0.00
2023-01-07T06:10:01.860Z,0.13
2023-01-07T06:12:30.060Z,0.00
2023-01-07T06:14:56.796Z,0.00
2023-01-07T06:17:23.759Z,0.00
2023-01-07T06:19:50.573Z,0.00
2023-01-07T06:22:17.398Z,0.57
2023-01-07T06:24:44.079Z,0.00
2023-01-07T06:27:11.220Z,0.00
2023-01-07T06:29:38.037Z,0.00
2023-01-07T06:32:05.238Z,0.00
2023-01-07T06:34:32.080Z,0.00
2023-01-07T06:36:58.852Z,0.17
2023-01-07T06:39:27.172Z,0.00
2023-01-07T06:41:54.147Z,0.00
2023-01-07T06:44:20.946Z,0.00
2023-01-07T06:46:47.778Z,0.00
2023-01-07T06:49:15.311Z,0.00
2023-01-07T06:51:42.069Z,0.00
2023-01-07T06:54:08.799Z,0.00
2023-01-07T06:56:35.597Z,0.00
2023-01-07T06:59:02.275Z,0.00
2023-01-07T07:01:29.536Z,0.00
2023-01-07T07:03:56.339Z,0.00
2023-01-07T07:06:23.180Z,0.00
2023-01-07T07:08:49.936Z,0.00
2023-01-07T07:11:16.809Z,0.10
2023-01-07T07:13:43.562Z,0.22
2023-01-07T07:16:10.383Z,0.00
2023-01-07T07:18:37.138Z,0.00
2023-01-07T07:21:04.015Z,0.00
2023-01-07T07:23:30.667Z,0.10
2023-01-07T07:25:57.431Z,0.00
2023-01-07T07:28:24.119Z,0.00
2023-01-07T07:30:51.961Z,0.00
2023-01-07T07:33:19.663Z,0.00
2023-01-07T07:35:47.035Z,0.00
2023-01-07T07:38:13.863Z,0.00
2023-01-07T07:40:40.886Z,0.00
2023-01-07T07:43:11.820Z,0.00
2023-01-07T07:45:41.105Z,0.20
2023-01-07T07:48:09.286Z,0.10
2023-01-07T07:50:36.396Z,0.00
2023-01-07T07:53:03.311Z,0.00
2023-01-07T07:55:30.117Z,0.00
2023-01-07T07:57:58.422Z,0.00
2023-01-07T08:00:25.642Z,0.03
2023-01-07T08:02:52.674Z,0.00
2023-01-07T08:05:19.552Z,0.00
2023-01-07T08:07:46.297Z,0.10
2023-01-07T08:10:13.013Z,0.00
2023-01-07T08:12:39.936Z,0.00
2023-01-07T08:15:08.270Z,0.00
2023-01-07T08:17:36.319Z,0.10
2023-01-07T08:20:07.521Z,0.00
2023-01-07T08:22:35.087Z,0.00
2023-01-07T08:25:01.981Z,0.00
2023-01-07T08:27:29.440Z,0.00
2023-01-07T08:29:56.604Z,0.22
2023-01-07T08:32:23.565Z,0.00
2023-01-07T08:34:50.819Z,0.10
2023-01-07T08:37:17.932Z,0.10
2023-01-07T08:39:44.700Z,0.32
2023-01-07T08:42:11.516Z,0.00
2023-01-07T08:44:38.227Z,0.63
2023-01-07T08:47:05.130Z,0.17
2023-01-07T08:49:32.181Z,0.00
2023-01-07T08:51:58.925Z,0.20
2023-01-07T08:54:25.687Z,0.52
2023-01-07T08:56:52.461Z,0.00
2023-01-07T08:59:19.140Z,0.65
2023-01-07T09:01:46.031Z,0.08
2023-01-07T09:04:12.834Z,0.20
2023-01-07T09:06:39.689Z,0.13
2023-01-07T09:09:06.485Z,0.20
2023-01-07T09:11:33.330Z,0.47
2023-01-07T09:14:00.098Z,0.00
2023-01-07T09:16:26.893Z,0.57
2023-01-07T09:18:53.715Z,0.00
2023-01-07T09:21:24.356Z,0.10
2023-01-07T09:24:01.477Z,0.25
2023-01-07T09:26:28.267Z,0.00
2023-01-07T09:28:54.954Z,0.28
2023-01-07T09:31:22.610Z,0.25
2023-01-07T09:33:50.879Z,0.22
2023-01-07T09:36:17.726Z,1.27
2023-01-07T09:38:44.741Z,0.00
2023-01-07T09:41:24.310Z,0.05
2023-01-07T09:44:00.972Z,0.10
2023-01-07T09:46:29.529Z,0.00
2023-01-07T09:49:01.127Z,0.15
2023-01-07T09:51:34.088Z,0.22
2023-01-07T09:54:03.677Z,0.10
2023-01-07T09:56:32.857Z,0.30
2023-01-07T09:59:06.150Z,0.03
2023-01-07T10:02:19.401Z,0.35
2023-01-07T10:05:05.719Z,0.10
2023-01-07T10:07:41.134Z,0.00
2023-01-07T10:10:23.012Z,0.28
2023-01-07T10:13:11.499Z,0.00
2023-01-07T10:16:01.760Z,0.25
2023-01-07T10:18:53.936Z,0.00
2023-01-07T10:21:49.538Z,0.00
2023-01-07T10:24:27.657Z,0.52
2023-01-07T10:27:01.205Z,0.00
2023-01-07T10:29:40.113Z,0.40
2023-01-07T10:32:30.258Z,0.05
2023-01-07T10:34:57.770Z,0.00
2023-01-07T10:37:29.348Z,0.22
2023-01-07T10:40:17.500Z,0.22
2023-01-07T10:43:12.133Z,0.00
2023-01-07T10:46:00.330Z,0.00
2023-01-07T10:48:42.351Z,0.00
2023-01-07T10:51:27.182Z,0.10
2023-01-07T10:53:59.529Z,0.05
2023-01-07T10:56:37.411Z,0.20
2023-01-07T10:59:04.892Z,0.10
2023-01-07T11:01:35.074Z,0.10
2023-01-07T11:04:02.164Z,0.08
2023-01-07T11:06:53.943Z,0.00
2023-01-07T11:09:25.831Z,0.10
2023-01-07T11:11:53.641Z,0.28
2023-01-07T11:14:23.245Z,0.10
2023-01-07T11:16:55.677Z,0.73
2023-01-07T11:19:23.814Z,0.30
2023-01-07T11:21:52.204Z,0.10
2023-01-07T11:24:19.048Z,0.17
2023-01-07T11:26:46.389Z,0.10
2023-01-07T11:29:16.150Z,0.63
2023-01-07T11:31:49.523Z,0.40
2023-01-07T11:34:22.557Z,0.20
2023-01-07T11:36:49.702Z,0.00
2023-01-07T11:39:25.538Z,0.20
2023-01-07T11:41:53.662Z,0.73
2023-01-07T11:44:20.615Z,0.10
2023-01-07T11:46:50.806Z,0.10
2023-01-07T11:49:34.436Z,0.10
2023-01-07T11:52:03.265Z,0.00
2023-01-07T11:54:35.294Z,0.10
2023-01-07T11:57:32.545Z,0.10
2023-01-07T12:00:17.997Z,0.47
2023-01-07T12:03:14.553Z,0.00
2023-01-07T12:05:45.209Z,0.13
2023-01-07T12:10:54.972Z,0.20
2023-01-07T12:13:26.124Z,0.20
2023-01-07T12:16:26.957Z,0.00
2023-01-07T12:19:10.092Z,0.32
2023-01-07T12:21:57.256Z,0.00
2023-01-07T12:24:47.346Z,0.20
2023-01-07T12:27:22.803Z,0.43
2023-01-07T12:29:55.678Z,0.38
2023-01-07T12:32:50.378Z,0.70
2023-01-07T12:35:27.351Z,0.08
2023-01-07T12:38:09.482Z,0.30
2023-01-07T12:40:40.279Z,0.10
2023-01-07T12:43:28.405Z,0.20
2023-01-07T12:46:01.056Z,0.00
2023-01-07T12:48:42.681Z,0.00
2023-01-07T12:51:18.829Z,0.40
2023-01-07T12:53:53.442Z,0.43
2023-01-07T12:56:24.252Z,0.20
2023-01-07T12:58:56.109Z,0.63
2023-01-07T13:01:30.793Z,0.40
2023-01-07T13:04:33.203Z,1.23
2023-01-07T13:07:05.717Z,0.00
2023-01-07T13:10:00.021Z,0.10
2023-01-07T13:12:46.230Z,0.52
2023-01-07T13:15:36.481Z,0.30
2023-01-07T13:18:13.359Z,0.28
2023-01-07T13:20:52.273Z,0.35
2023-01-07T13:23:24.452Z,0.10
2023-01-07T13:26:01.553Z,0.00
2023-01-07T13:28:53.080Z,0.10
2023-01-07T13:31:42.702Z,0.05
2023-01-07T13:34:13.854Z,0.00
2023-01-07T13:37:12.376Z,0.32
2023-01-07T13:40:11.921Z,0.10
2023-01-07T13:42:45.415Z,0.20
2023-01-07T13:45:17.859Z,0.10
2023-01-07T13:47:53.457Z,0.00
2023-01-07T13:50:24.331Z,0.10
2023-01-07T13:53:02.975Z,0.43
2023-01-07T13:55:32.478Z,0.32
2023-01-07T13:57:59.265Z,0.10
2023-01-07T14:00:42.110Z,0.20
2023-01-07T14:03:26.886Z,1.00
2023-01-07T14:06:18.783Z,0.30
2023-01-07T14:09:11.190Z,0.10
2023-01-07T14:11:42.193Z,0.60
2023-01-07T14:14:38.252Z,0.08
2023-01-07T14:17:22.954Z,0.10
2023-01-07T14:20:03.771Z,0.00
2023-01-07T14:22:48.905Z,0.20
2023-01-07T14:25:34.605Z,0.10
2023-01-07T14:28:40.432Z,0.20
2023-01-07T14:31:20.193Z,0.10
2023-01-07T14:33:50.419Z,0.10
2023-01-07T14:36:17.321Z,0.20
2023-01-07T14:38:58.157Z,0.73
2023-01-07T14:41:25.418Z,0.20
2023-01-07T14:44:28.075Z,0.55
2023-01-07T14:46:54.955Z,0.20
2023-01-07T14:49:46.938Z,0.30
2023-01-07T14:52:32.712Z,0.10
2023-01-07T14:55:19.927Z,0.52
2023-01-07T14:58:06.443Z,0.05
2023-01-07T15:00:48.357Z,0.20
2023-01-07T15:03:29.799Z,0.35
2023-01-07T15:06:20.283Z,0.00
2023-01-07T15:09:41.325Z,0.30
2023-01-07T15:12:44.124Z,0.00
2023-01-07T15:15:41.619Z,0.20
2023-01-07T15:18:09.834Z,0.00
2023-01-07T15:20:48.585Z,0.00
2023-01-07T15:23:47.275Z,0.00
2023-01-07T15:26:19.900Z,0.00
2023-01-07T15:29:05.582Z,0.15
2023-01-07T15:31:39.128Z,0.17
2023-01-07T15:34:05.889Z,0.55
2023-01-07T15:36:33.171Z,20.25
2023-01-07T15:39:01.949Z,52.20
2023-01-07T15:41:30.075Z,50.28
2023-01-07T15:43:58.066Z,33.22
2023-01-07T15:46:25.686Z,30.38
2023-01-07T15:49:04.851Z,27.48
2023-01-07T15:51:32.517Z,20.15
2023-01-07T15:54:00.469Z,11.13
2023-01-07T15:56:27.924Z,19.63
2023-01-07T15:58:54.748Z,8.20
2023-01-07T16:01:24.991Z,10.98
2023-01-07T16:03:54.948Z,8.57
2023-01-07T16:06:30.795Z,3.10
2023-01-07T16:08:58.666Z,2.65
2023-01-07T16:11:28.013Z,2.65
2023-01-07T16:14:04.780Z,3.90
2023-01-07T16:16:32.626Z,1.55
2023-01-07T16:19:01.141Z,3.17
2023-01-07T16:21:40.944Z,1.60
2023-01-07T16:24:08.085Z,2.67
2023-01-07T16:26:41.261Z,0.70
2023-01-07T16:29:38.325Z,3.10
2023-01-07T16:32:07.100Z,0.10
2023-01-07T16:34:33.995Z,1.13
2023-01-07T16:37:03.220Z,0.55
2023-01-07T16:39:40.373Z,1.98
2023-01-07T16:42:20.589Z,0.08
2023-01-07T16:44:51.141Z,1.20
2023-01-07T16:49:51.431Z,3.00
2023-01-07T16:52:19.688Z,0.93
2023-01-07T16:54:47.613Z,1.55
2023-01-07T16:57:14.537Z,1.08
2023-01-07T16:59:49.755Z,0.63
2023-01-07T17:02:29.966Z,0.90
2023-01-07T17:05:20.271Z,0.75
2023-01-07T17:07:58.811Z,1.38
2023-01-07T17:10:29.652Z,0.47
2023-01-07T17:13:15.686Z,0.50
2023-01-07T17:15:43.422Z,0.47
2023-01-07T17:18:13.518Z,0.70
2023-01-07T17:21:00.183Z,1.50
2023-01-07T17:23:27.131Z,0.32
2023-01-07T17:26:09.138Z,0.52
2023-01-07T17:28:43.421Z,0.98
2023-01-07T17:31:10.404Z,0.00
2023-01-07T17:33:37.374Z,0.80
2023-01-07T17:36:04.301Z,0.32
2023-01-07T17:38:31.084Z,0.10
2023-01-07T17:40:57.996Z,0.00
2023-01-07T17:43:34.895Z,0.30
2023-01-07T17:46:06.155Z,0.75
2023-01-07T17:48:33.775Z,0.77
2023-01-07T17:51:01.427Z,0.55
2023-01-07T17:53:31.601Z,0.00
2023-01-07T17:56:00.977Z,0.00
2023-01-07T17:58:33.397Z,0.15
2023-01-07T18:01:01.792Z,0.40
2023-01-07T18:03:29.196Z,0.10
2023-01-07T18:05:56.014Z,0.15
2023-01-07T18:08:22.901Z,0.03
2023-01-07T18:11:10.230Z,0.20
2023-01-07T18:13:37.333Z,0.05
2023-01-07T18:16:04.407Z,0.20
2023-01-07T18:18:31.283Z,0.15
2023-01-07T18:20:58.553Z,0.90
2023-01-07T18:23:25.580Z,0.00
2023-01-07T18:25:52.318Z,0.00
2023-01-07T18:28:19.140Z,0.00
2023-01-07T18:30:45.892Z,0.20
2023-01-07T18:33:12.876Z,0.57
2023-01-07T18:35:43.016Z,0.00
2023-01-07T18:38:14.339Z,0.00
2023-01-07T18:40:42.085Z,0.00
2023-01-07T18:43:17.169Z,0.00
2023-01-07T18:45:47.590Z,0.20
2023-01-07T18:48:16.107Z,0.20
2023-01-07T18:50:47.354Z,0.00
2023-01-07T18:53:24.725Z,0.13
2023-01-07T18:56:01.255Z,0.43
2023-01-07T18:58:28.260Z,0.00
2023-01-07T19:00:55.037Z,0.00
2023-01-07T19:03:21.884Z,0.10
2023-01-07T19:05:48.578Z,0.03
2023-01-07T19:08:15.296Z,0.00
2023-01-07T19:10:42.532Z,0.00
2023-01-07T19:13:10.211Z,0.00
2023-01-07T19:15:38.682Z,0.00
2023-01-07T19:18:05.731Z,0.40
2023-01-07T19:20:33.474Z,0.00
2023-01-07T19:23:01.334Z,0.30
2023-01-07T19:25:29.551Z,0.00
2023-01-07T19:27:57.193Z,0.10
2023-01-07T19:30:24.306Z,0.00
2023-01-07T19:32:53.141Z,0.08
2023-01-07T19:35:20.255Z,0.17
2023-01-07T19:37:47.191Z,0.20
2023-01-07T19:40:14.006Z,0.00
2023-01-07T19:42:40.816Z,0.22
2023-01-07T19:45:08.142Z,0.10
2023-01-07T19:47:35.447Z,0.05
2023-01-07T19:50:02.378Z,0.00
2023-01-07T19:52:29.330Z,0.08
2023-01-07T19:54:56.173Z,0.00
2023-01-07T19:57:23.104Z,0.03
2023-01-07T19:59:49.802Z,0.00
2023-01-07T20:02:17.812Z,0.00
2023-01-07T20:04:44.661Z,0.00
2023-01-07T20:07:11.486Z,0.00
2023-01-07T20:09:38.288Z,0.10
2023-01-07T20:12:05.419Z,0.03
2023-01-07T20:14:32.075Z,0.10
2023-01-07T20:16:58.928Z,0.00
2023-01-07T20:19:27.215Z,0.00
2023-01-07T20:21:54.045Z,0.00
2023-01-07T20:24:20.715Z,0.00
2023-01-07T20:26:47.835Z,0.00
2023-01-07T20:29:14.565Z,0.00
2023-01-07T20:31:41.535Z,0.00
2023-01-07T20:34:08.310Z,0.17
2023-01-07T20:36:35.082Z,0.00
2023-01-07T20:39:05.759Z,0.10
2023-01-07T20:41:33.875Z,0.00
2023-01-07T20:44:02.490Z,0.00
2023-01-07T20:46:30.432Z,0.00
2023-01-07T20:48:57.434Z,0.30
2023-01-07T20:51:24.275Z,0.00
2023-01-07T20:53:51.024Z,0.05
2023-01-07T20:56:19.923Z,0.00
2023-01-07T20:58:47.437Z,0.00
2023-01-07T21:01:17.118Z,0.00
2023-01-07T21:03:44.496Z,0.00
2023-01-07T21:06:13.195Z,0.10
2023-01-07T21:08:40.253Z,0.20
2023-01-07T21:11:15.486Z,0.00
2023-01-07T21:13:42.716Z,0.10
2023-01-07T21:16:10.138Z,0.00
2023-01-07T21:18:37.187Z,0.00
2023-01-07T21:21:10.335Z,0.00
2023-01-07T21:23:37.214Z,0.00
2023-01-07T21:26:04.265Z,0.10
2023-01-07T21:28:32.388Z,0.03
2023-01-07T21:31:09.347Z,0.10
2023-01-07T21:33:45.744Z,0.00
2023-01-07T21:36:17.127Z,0.00
2023-01-07T21:38:56.220Z,0.20
2023-01-07T21:41:24.730Z,0.20
2023-01-07T21:43:51.550Z,0.10
2023-01-07T21:46:18.379Z,0.30
2023-01-07T21:48:47.073Z,0.00
2023-01-07T21:51:25.888Z,0.00
2023-01-07T21:53:55.935Z,1.17
2023-01-07T21:56:23.860Z,0.00
2023-01-07T21:58:50.558Z,0.00
2023-01-07T22:01:18.057Z,0.00
2023-01-07T22:03:46.795Z,0.00
2023-01-07T22:06:21.933Z,0.00
2023-01-07T22:08:49.314Z,0.00
2023-01-07T22:11:17.675Z,0.88
2023-01-07T22:13:44.451Z,0.00
2023-01-07T22:16:11.258Z,0.00
2023-01-07T22:18:38.088Z,0.00
2023-01-07T22:21:04.863Z,0.00
2023-01-07T22:23:31.770Z,0.00
2023-01-07T22:26:05.621Z,0.00
2023-01-07T22:28:34.032Z,0.00
2023-01-07T22:31:03.490Z,0.00
2023-01-07T22:33:30.256Z,0.00
2023-01-07T22:35:57.092Z,0.00
2023-01-07T22:38:25.930Z,0.00
2023-01-07T22:40:53.439Z,0.00
2023-01-07T22:43:20.957Z,0.22
2023-01-07T22:46:04.525Z,0.00
2023-01-07T22:48:34.713Z,0.00
2023-01-07T22:51:08.289Z,0.10
2023-01-07T22:53:35.389Z,0.00
2023-01-07T22:56:03.017Z,0.10
2023-01-07T22:58:29.884Z,0.00
2023-01-07T23:00:57.179Z,0.10
2023-01-07T23:03:24.460Z,0.00
2023-01-07T23:05:51.581Z,0.00
2023-01-07T23:08:18.493Z,0.00
2023-01-07T23:10:45.327Z,0.00
2023-01-07T23:13:12.624Z,0.00
2023-01-07T23:15:39.840Z,0.00
2023-01-07T23:18:07.885Z,0.00
2023-01-07T23:20:38.076Z,0.00
2023-01-07T23:23:05.628Z,0.00
2023-01-07T23:25:32.512Z,0.00
2023-01-07T23:27:59.289Z,0.75
2023-01-07T23:30:25.986Z,0.00
2023-01-07T23:32:52.806Z,0.15
2023-01-07T23:35:19.560Z,0.10
2023-01-07T23:37:46.598Z,0.00
2023-01-07T23:40:13.589Z,0.00
2023-01-07T23:42:40.400Z,0.00
2023-01-07T23:45:07.661Z,0.00
2023-01-07T23:47:34.434Z,0.20
2023-01-07T23:50:01.080Z,0.28
2023-01-07T23:52:27.884Z,0.00
2023-01-07T23:54:54.596Z,0.00
2023-01-07T23:57:21.410Z,0.00
2023-01-07T23:59:48.823Z,0.00
